Time;durP1;ratioP1;P1;durP2;ratioP2;P2;SDS_P1;SDS_P2;PMS_P1;PMS_P2;Temp;Humidity;BMP_temperature;BMP_pressure;BME280_temperature;BME280_humidity;BME280_pressure;Samples;Min_cycle;Max_cycle;Signal;HPM_P1;HPM_P2
2021/03/10 00:01:53;;;;;;;77.47;36.83;;;;;;;;;;757333;182;919369;-70
2021/03/10 00:04:18;;;;;;;77.03;38.03;;;;;;;;;;755491;182;919266;-70
2021/03/10 00:06:44;;;;;;;77.90;38.33;;;;;;;;;;755711;182;918587;-70
2021/03/10 00:09:10;;;;;;;61.93;36.17;;;;;;;;;;755518;182;919461;-70
2021/03/10 00:11:36;;;;;;;85.40;39.20;;;;;;;;;;746049;182;2764513;-70
2021/03/10 00:14:02;;;;;;;72.70;37.97;;;;;;;;;;760103;182;919385;-70
2021/03/10 00:16:28;;;;;;;71.67;37.43;;;;;;;;;;753273;182;924448;-70
2021/03/10 00:18:53;;;;;;;75.00;39.83;;;;;;;;;;747149;182;2312323;-70
2021/03/10 00:21:19;;;;;;;70.33;39.17;;;;;;;;;;761250;182;918030;-69
2021/03/10 00:23:45;;;;;;;68.80;39.93;;;;;;;;;;749943;183;919874;-69
2021/03/10 00:26:11;;;;;;;85.57;40.40;;;;;;;;;;746187;186;918712;-70
2021/03/10 00:28:37;;;;;;;80.47;38.37;;;;;;;;;;754045;186;919119;-71
2021/03/10 00:31:03;;;;;;;79.53;41.87;;;;;;;;;;745209;186;919496;-70
2021/03/10 00:33:28;;;;;;;82.60;43.28;;;;;;;;;;762859;182;922741;-70
2021/03/10 00:35:54;;;;;;;81.40;39.20;;;;;;;;;;755145;183;919520;-69
2021/03/10 00:38:21;;;;;;;73.13;39.07;;;;;;;;;;763761;183;919625;-70
2021/03/10 00:40:46;;;;;;;81.10;40.50;;;;;;;;;;761900;182;918656;-71
2021/03/10 00:43:12;;;;;;;72.20;35.50;;;;;;;;;;754911;183;919529;-70
2021/03/10 00:45:38;;;;;;;69.80;35.37;;;;;;;;;;766463;182;919575;-70
2021/03/10 00:48:04;;;;;;;67.95;35.63;;;;;;;;;;747752;186;917469;-70
2021/03/10 00:50:30;;;;;;;80.05;35.60;;;;;;;;;;750049;183;1020169;-70
2021/03/10 00:52:56;;;;;;;68.80;36.33;;;;;;;;;;753380;182;919439;-70
2021/03/10 00:55:22;;;;;;;67.50;34.07;;;;;;;;;;752842;182;1079079;-70
2021/03/10 00:57:48;;;;;;;64.90;35.40;;;;;;;;;;753360;181;948567;-70
2021/03/10 01:00:14;;;;;;;68.53;35.40;;;;;;;;;;763803;182;919085;-70
2021/03/10 01:02:40;;;;;;;63.90;37.30;;;;;;;;;;756920;183;917810;-71
2021/03/10 01:05:07;;;;;;;68.93;39.40;;;;;;;;;;767706;182;920781;-70
2021/03/10 01:07:33;;;;;;;63.63;35.27;;;;;;;;;;758571;182;919292;-69
2021/03/10 01:09:59;;;;;;;62.33;34.93;;;;;;;;;;754434;182;920317;-69
2021/03/10 01:12:25;;;;;;;61.90;32.97;;;;;;;;;;751007;185;919376;-69
2021/03/10 01:14:50;;;;;;;64.37;36.33;;;;;;;;;;748295;186;916809;-70
2021/03/10 01:17:16;;;;;;;71.57;38.80;;;;;;;;;;754716;183;916027;-70
2021/03/10 01:19:42;;;;;;;66.37;34.67;;;;;;;;;;752057;182;969382;-69
2021/03/10 01:22:08;;;;;;;58.37;34.70;;;;;;;;;;755866;182;919304;-69
2021/03/10 01:24:34;;;;;;;62.63;33.57;;;;;;;;;;757036;182;918181;-70
2021/03/10 01:27:00;;;;;;;65.30;33.83;;;;;;;;;;752403;182;919713;-70
2021/03/10 01:29:25;;;;;;;57.47;33.85;;;;;;;;;;746377;186;939446;-69
2021/03/10 01:31:51;;;;;;;70.00;34.43;;;;;;;;;;759297;183;918988;-69
2021/03/10 01:34:17;;;;;;;66.83;36.33;;;;;;;;;;744620;186;1020900;-70
2021/03/10 01:36:43;;;;;;;70.37;34.47;;;;;;;;;;753527;183;919585;-70
2021/03/10 01:39:10;;;;;;;53.20;31.87;;;;;;;;;;749218;183;918763;-69
2021/03/10 01:41:36;;;;;;;66.30;36.07;;;;;;;;;;762802;183;918381;-69
2021/03/10 01:44:01;;;;;;;80.10;41.60;;;;;;;;;;754601;183;920649;-69
2021/03/10 01:46:27;;;;;;;73.87;40.60;;;;;;;;;;752154;183;919394;-70
2021/03/10 01:48:54;;;;;;;67.43;37.50;;;;;;;;;;752049;183;916440;-69
2021/03/10 01:51:19;;;;;;;67.33;37.77;;;;;;;;;;755102;183;914812;-69
2021/03/10 01:53:45;;;;;;;62.70;35.20;;;;;;;;;;752266;183;1022020;-69
2021/03/10 01:56:11;;;;;;;62.00;32.90;;;;;;;;;;762050;183;918473;-70
2021/03/10 01:58:37;;;;;;;67.57;35.63;;;;;;;;;;747127;183;919489;-70
2021/03/10 02:01:03;;;;;;;70.97;34.80;;;;;;;;;;752178;183;1315008;-69
2021/03/10 02:03:29;;;;;;;73.50;37.17;;;;;;;;;;756476;183;919746;-69
2021/03/10 02:05:55;;;;;;;73.07;36.80;;;;;;;;;;752366;182;918884;-69
2021/03/10 02:08:26;;;;;;;85.50;33.00;;;;;;;;;;758707;181;949890;-69
2021/03/10 02:11:06;;;;;;;73.57;36.20;;;;;;;;;;738777;182;921614;-70
2021/03/10 02:13:50;;;;;;;69.63;38.37;;;;;;;;;;752428;185;918880;-70
2021/03/10 02:16:17;;;;;;;80.67;41.33;;;;;;;;;;757988;182;917646;-70
2021/03/10 02:18:44;;;;;;;67.70;38.10;;;;;;;;;;760623;182;944227;-69
2021/03/10 02:21:11;;;;;;;65.20;34.83;;;;;;;;;;741978;182;2770728;-69
2021/03/10 02:23:39;;;;;;;57.60;32.37;;;;;;;;;;755531;182;916959;-71
2021/03/10 02:26:11;;;;;;;65.87;37.60;;;;;;;;;;755061;182;917102;-69
2021/03/10 02:28:37;;;;;;;78.80;36.67;;;;;;;;;;762156;182;917284;-69
2021/03/10 02:31:04;;;;;;;81.93;39.33;;;;;;;;;;753009;182;924977;-69
2021/03/10 02:33:30;;;;;;;72.60;40.03;;;;;;;;;;755581;182;916211;-69
2021/03/10 02:35:56;;;;;;;74.30;40.30;;;;;;;;;;754450;182;919319;-69
2021/03/10 02:38:22;;;;;;;77.53;40.80;;;;;;;;;;754017;182;935891;-69
2021/03/10 02:40:48;;;;;;;62.93;34.20;;;;;;;;;;758603;182;919334;-69
2021/03/10 02:43:14;;;;;;;69.03;37.67;;;;;;;;;;753377;182;918953;-68
2021/03/10 02:45:40;;;;;;;71.13;34.43;;;;;;;;;;761661;183;919615;-69
2021/03/10 02:48:06;;;;;;;80.20;39.73;;;;;;;;;;733905;182;5446280;-69
2021/03/10 02:50:31;;;;;;;67.30;40.40;;;;;;;;;;763192;182;919199;-70
2021/03/10 02:52:57;;;;;;;79.43;41.27;;;;;;;;;;758304;183;919690;-70
2021/03/10 02:55:23;;;;;;;68.23;37.20;;;;;;;;;;748627;183;919068;-69
2021/03/10 02:57:49;;;;;;;73.27;39.00;;;;;;;;;;755946;183;918407;-69
2021/03/10 03:00:15;;;;;;;85.07;39.80;;;;;;;;;;758688;183;948244;-70
2021/03/10 03:02:41;;;;;;;79.87;41.10;;;;;;;;;;752035;182;919390;-69
2021/03/10 03:05:07;;;;;;;68.77;39.30;;;;;;;;;;757223;182;1020159;-69
2021/03/10 03:07:33;;;;;;;78.13;40.70;;;;;;;;;;756249;182;1375680;-68
2021/03/10 03:09:59;;;;;;;73.37;40.37;;;;;;;;;;766939;182;920406;-69
2021/03/10 03:12:25;;;;;;;78.20;39.50;;;;;;;;;;759087;183;919896;-69
2021/03/10 03:14:51;;;;;;;68.23;39.13;;;;;;;;;;755334;182;918889;-68
2021/03/10 03:17:17;;;;;;;72.63;39.80;;;;;;;;;;755196;182;1021226;-69
2021/03/10 03:19:43;;;;;;;68.70;37.77;;;;;;;;;;752032;182;919449;-70
2021/03/10 03:22:09;;;;;;;80.00;39.10;;;;;;;;;;753290;182;919110;-69
2021/03/10 03:24:35;;;;;;;77.40;40.00;;;;;;;;;;761940;182;919357;-69
2021/03/10 03:27:01;;;;;;;68.00;39.20;;;;;;;;;;760971;182;919260;-70
2021/03/10 03:29:27;;;;;;;73.75;38.30;;;;;;;;;;753550;182;1055761;-69
2021/03/10 03:31:53;;;;;;;83.63;42.57;;;;;;;;;;762845;182;919320;-70
2021/03/10 03:34:19;;;;;;;72.50;37.92;;;;;;;;;;752609;183;918714;-69
2021/03/10 03:36:44;;;;;;;80.57;38.07;;;;;;;;;;759858;182;918708;-69
2021/03/10 03:39:10;;;;;;;76.53;41.70;;;;;;;;;;748438;182;920384;-69
2021/03/10 03:41:36;;;;;;;71.90;38.10;;;;;;;;;;760479;183;918653;-69
2021/03/10 03:44:02;;;;;;;66.40;37.90;;;;;;;;;;756647;182;919926;-69
2021/03/10 03:46:28;;;;;;;70.17;40.10;;;;;;;;;;757663;182;920187;-69
2021/03/10 03:48:59;;;;;;;64.30;38.43;;;;;;;;;;749728;182;2866452;-69
2021/03/10 03:51:25;;;;;;;75.13;38.80;;;;;;;;;;752745;182;918100;-69
2021/03/10 03:54:01;;;;;;;76.55;39.67;;;;;;;;;;757179;182;918073;-69
2021/03/10 03:56:27;;;;;;;77.50;41.30;;;;;;;;;;761009;183;918511;-70
2021/03/10 03:58:53;;;;;;;74.93;41.13;;;;;;;;;;754715;183;919272;-69
2021/03/10 04:01:19;;;;;;;74.33;39.80;;;;;;;;;;753039;182;919069;-70
2021/03/10 04:03:49;;;;;;;77.25;41.08;;;;;;;;;;758512;182;919232;-69
2021/03/10 04:06:15;;;;;;;71.17;40.67;;;;;;;;;;755193;183;919113;-69
2021/03/10 04:08:41;;;;;;;69.00;37.67;;;;;;;;;;757612;183;919371;-69
2021/03/10 04:11:07;;;;;;;74.80;37.03;;;;;;;;;;744536;183;2814298;-69
2021/03/10 04:13:33;;;;;;;76.68;39.55;;;;;;;;;;756275;182;919590;-69
2021/03/10 04:15:59;;;;;;;73.70;39.43;;;;;;;;;;757533;183;916067;-69
2021/03/10 04:18:25;;;;;;;86.00;42.73;;;;;;;;;;755672;183;1023320;-69
2021/03/10 04:20:50;;;;;;;84.47;42.53;;;;;;;;;;753394;182;938697;-69
2021/03/10 04:23:16;;;;;;;66.57;41.00;;;;;;;;;;761354;183;916706;-69
2021/03/10 04:25:42;;;;;;;82.33;42.17;;;;;;;;;;749497;183;922643;-69
2021/03/10 04:28:08;;;;;;;76.27;41.40;;;;;;;;;;754009;183;919554;-69
2021/03/10 04:30:35;;;;;;;82.83;42.30;;;;;;;;;;758614;181;992060;-69
2021/03/10 04:33:01;;;;;;;89.23;42.97;;;;;;;;;;755608;182;920742;-69
2021/03/10 04:35:27;;;;;;;78.33;42.10;;;;;;;;;;743952;186;935847;-69
2021/03/10 04:37:53;;;;;;;83.10;42.80;;;;;;;;;;759599;183;924184;-69
2021/03/10 04:40:18;;;;;;;82.50;41.23;;;;;;;;;;763206;182;918900;-69
2021/03/10 04:42:44;;;;;;;81.27;45.80;;;;;;;;;;758011;182;923296;-69
2021/03/10 04:45:12;;;;;;;89.87;40.57;;;;;;;;;;757056;182;1017739;-69
2021/03/10 04:47:36;;;;;;;86.80;42.90;;;;;;;;;;756741;182;933843;-68
2021/03/10 04:50:03;;;;;;;87.83;43.90;;;;;;;;;;747537;186;926939;-69
2021/03/10 04:52:29;;;;;;;91.27;42.33;;;;;;;;;;745597;186;916047;-69
2021/03/10 04:54:55;;;;;;;96.30;46.67;;;;;;;;;;761259;183;919208;-68
2021/03/10 04:57:21;;;;;;;85.20;46.63;;;;;;;;;;762172;182;917929;-68
2021/03/10 04:59:47;;;;;;;81.20;43.70;;;;;;;;;;763569;183;919244;-68
2021/03/10 05:02:12;;;;;;;81.65;45.30;;;;;;;;;;752565;182;947363;-68
2021/03/10 05:04:39;;;;;;;78.37;44.33;;;;;;;;;;756553;183;1021870;-69
2021/03/10 05:07:04;;;;;;;78.97;43.58;;;;;;;;;;753551;182;918877;-69
2021/03/10 05:09:30;;;;;;;86.47;46.47;;;;;;;;;;757264;183;919581;-69
2021/03/10 05:11:56;;;;;;;72.93;41.60;;;;;;;;;;761722;182;650709;-68
2021/03/10 05:14:22;;;;;;;83.37;42.47;;;;;;;;;;756408;183;636447;-68
2021/03/10 05:16:48;;;;;;;82.35;44.55;;;;;;;;;;756427;182;649327;-69
2021/03/10 05:19:13;;;;;;;85.10;43.17;;;;;;;;;;764342;182;617905;-69
2021/03/10 05:21:39;;;;;;;69.83;41.33;;;;;;;;;;754612;183;918657;-69
2021/03/10 05:24:06;;;;;;;74.60;40.57;;;;;;;;;;755881;183;921315;-68
2021/03/10 05:26:31;;;;;;;78.73;45.07;;;;;;;;;;759284;183;917083;-69
2021/03/10 05:28:57;;;;;;;69.10;41.27;;;;;;;;;;754817;182;919082;-69
2021/03/10 05:31:23;;;;;;;109.87;45.05;;;;;;;;;;754174;183;915529;-68
2021/03/10 05:33:49;;;;;;;88.40;43.97;;;;;;;;;;752405;183;916385;-68
2021/03/10 05:36:15;;;;;;;94.30;44.70;;;;;;;;;;757100;183;919145;-68
2021/03/10 05:38:41;;;;;;;84.97;42.60;;;;;;;;;;753999;182;1529102;-68
2021/03/10 05:41:06;;;;;;;95.47;45.87;;;;;;;;;;749909;182;919755;-68
2021/03/10 05:43:32;;;;;;;105.12;52.30;;;;;;;;;;755587;182;925251;-68
2021/03/10 05:45:58;;;;;;;92.77;46.97;;;;;;;;;;753305;182;919919;-68
2021/03/10 05:48:24;;;;;;;89.30;45.83;;;;;;;;;;751010;182;919068;-68
2021/03/10 05:50:51;;;;;;;84.87;43.17;;;;;;;;;;758539;183;922566;-67
2021/03/10 05:53:17;;;;;;;91.47;45.58;;;;;;;;;;753285;183;919484;-68
2021/03/10 05:55:42;;;;;;;95.07;47.93;;;;;;;;;;758311;183;919204;-66
2021/03/10 05:58:11;;;;;;;152.50;51.93;;;;;;;;;;767873;183;919678;-68
2021/03/10 06:00:52;;;;;;;142.40;63.30;;;;;;;;;;759431;183;919216;-68
2021/03/10 06:03:18;;;;;;;118.27;56.87;;;;;;;;;;771578;183;919538;-69
2021/03/10 06:05:44;;;;;;;98.93;49.40;;;;;;;;;;760597;182;981602;-69
2021/03/10 06:08:14;;;;;;;85.23;48.10;;;;;;;;;;762570;182;919076;-68
2021/03/10 06:10:36;;;;;;;97.93;48.10;;;;;;;;;;754891;182;919575;-68
2021/03/10 06:13:03;;;;;;;120.32;54.85;;;;;;;;;;749651;186;919428;-68
2021/03/10 06:15:29;;;;;;;86.97;50.90;;;;;;;;;;745018;186;919213;-68
2021/03/10 06:17:55;;;;;;;94.10;46.80;;;;;;;;;;756830;183;918780;-68
2021/03/10 06:20:31;;;;;;;98.90;51.23;;;;;;;;;;761133;182;919206;-67
2021/03/10 06:22:56;;;;;;;114.77;56.17;;;;;;;;;;758859;182;919385;-66
2021/03/10 06:25:22;;;;;;;110.17;54.00;;;;;;;;;;749527;182;938187;-67
2021/03/10 06:27:51;;;;;;;107.40;51.17;;;;;;;;;;763838;183;919059;-67
2021/03/10 06:30:17;;;;;;;100.73;48.47;;;;;;;;;;753750;182;921853;-67
2021/03/10 06:32:43;;;;;;;97.43;46.57;;;;;;;;;;746418;183;919595;-68
2021/03/10 06:35:10;;;;;;;95.47;49.73;;;;;;;;;;757336;183;919687;-69
2021/03/10 06:37:35;;;;;;;112.00;55.60;;;;;;;;;;758525;186;920063;-67
2021/03/10 06:40:05;;;;;;;128.90;58.13;;;;;;;;;;750985;182;1021819;-67
2021/03/10 06:42:31;;;;;;;98.63;49.63;;;;;;;;;;759337;182;919277;-67
2021/03/10 06:44:58;;;;;;;90.83;48.97;;;;;;;;;;761011;182;919455;-67
2021/03/10 06:47:24;;;;;;;97.73;49.77;;;;;;;;;;754627;182;2016426;-67
2021/03/10 06:49:50;;;;;;;83.93;47.80;;;;;;;;;;757515;183;918210;-66
2021/03/10 06:52:16;;;;;;;82.57;43.60;;;;;;;;;;761380;183;919474;-68
2021/03/10 06:54:41;;;;;;;90.15;45.22;;;;;;;;;;751890;182;919580;-69
2021/03/10 06:57:08;;;;;;;130.67;55.77;;;;;;;;;;752070;182;918762;-68
2021/03/10 06:59:39;;;;;;;83.13;43.70;;;;;;;;;;755017;182;919703;-69
2021/03/10 07:02:05;;;;;;;160.47;64.67;;;;;;;;;;758899;183;919427;-69
2021/03/10 07:04:31;;;;;;;80.57;45.03;;;;;;;;;;761195;183;918346;-69
2021/03/10 07:06:56;;;;;;;120.40;68.70;;;;;;;;;;757925;182;1291579;-69
2021/03/10 07:09:22;;;;;;;101.67;51.00;;;;;;;;;;758911;182;642573;-70
2021/03/10 07:11:48;;;;;;;87.63;43.20;;;;;;;;;;750573;182;647316;-69
2021/03/10 07:14:14;;;;;;;98.73;48.80;;;;;;;;;;756961;182;762522;-69
2021/03/10 07:16:40;;;;;;;91.67;48.33;;;;;;;;;;765061;182;636817;-67
2021/03/10 07:19:06;;;;;;;77.83;36.07;;;;;;;;;;763149;182;624665;-67
2021/03/10 07:21:32;;;;;;;87.87;42.70;;;;;;;;;;750901;186;655845;-68
2021/03/10 07:23:58;;;;;;;91.00;42.30;;;;;;;;;;763639;182;622252;-66
2021/03/10 07:26:23;;;;;;;80.77;40.23;;;;;;;;;;762762;184;631633;-66
2021/03/10 07:28:49;;;;;;;95.47;42.60;;;;;;;;;;761896;182;932426;-65
2021/03/10 07:31:17;;;;;;;77.20;39.27;;;;;;;;;;761035;183;643039;-65
2021/03/10 07:33:43;;;;;;;68.87;34.50;;;;;;;;;;757023;183;628787;-65
2021/03/10 07:36:09;;;;;;;78.17;40.57;;;;;;;;;;757647;183;626119;-64
2021/03/10 07:38:38;;;;;;;73.37;38.37;;;;;;;;;;756158;182;677884;-64
2021/03/10 07:41:04;;;;;;;91.90;41.50;;;;;;;;;;762033;183;625685;-64
2021/03/10 07:43:35;;;;;;;93.87;39.60;;;;;;;;;;748304;183;623708;-65
2021/03/10 07:46:01;;;;;;;103.50;47.13;;;;;;;;;;768347;183;644282;-66
2021/03/10 07:48:29;;;;;;;86.57;44.07;;;;;;;;;;757546;183;626610;-65
2021/03/10 07:50:55;;;;;;;103.07;48.20;;;;;;;;;;766140;183;634739;-64
2021/03/10 07:53:21;;;;;;;107.20;52.33;;;;;;;;;;751434;183;682209;-64
2021/03/10 07:55:47;;;;;;;141.55;56.63;;;;;;;;;;764911;183;625302;-65
2021/03/10 07:58:12;;;;;;;180.83;73.07;;;;;;;;;;748149;183;616843;-65
2021/03/10 08:00:38;;;;;;;115.87;52.23;;;;;;;;;;761130;183;632627;-65
2021/03/10 08:03:04;;;;;;;118.77;56.87;;;;;;;;;;758928;182;644415;-66
2021/03/10 08:05:30;;;;;;;129.10;57.97;;;;;;;;;;758840;183;623771;-65
2021/03/10 08:08:02;;;;;;;119.00;58.97;;;;;;;;;;764357;182;646797;-65
2021/03/10 08:10:28;;;;;;;132.73;57.00;;;;;;;;;;756953;182;918350;-66
2021/03/10 08:12:54;;;;;;;104.13;51.53;;;;;;;;;;757217;182;919710;-66
2021/03/10 08:15:22;;;;;;;121.95;55.67;;;;;;;;;;763092;182;1075649;-66
2021/03/10 08:17:48;;;;;;;121.23;54.27;;;;;;;;;;760362;183;915752;-66
2021/03/10 08:20:14;;;;;;;118.97;53.90;;;;;;;;;;758032;182;916843;-65
2021/03/10 08:22:40;;;;;;;118.30;49.90;;;;;;;;;;756543;182;919571;-65
2021/03/10 08:25:06;;;;;;;113.73;52.33;;;;;;;;;;760430;182;914583;-65
2021/03/10 08:27:32;;;;;;;125.23;53.10;;;;;;;;;;758179;182;919228;-64
2021/03/10 08:29:58;;;;;;;103.67;51.10;;;;;;;;;;754042;182;920048;-63
2021/03/10 08:32:24;;;;;;;99.93;48.27;;;;;;;;;;764364;182;642315;-63
2021/03/10 08:34:50;;;;;;;113.37;49.03;;;;;;;;;;754247;182;689814;-63
2021/03/10 08:37:15;;;;;;;104.50;49.07;;;;;;;;;;761010;182;621988;-62
2021/03/10 08:39:42;;;;;;;118.20;51.80;;;;;;;;;;758514;182;640182;-61
2021/03/10 08:42:07;;;;;;;114.27;52.40;;;;;;;;;;749616;182;615543;-61
2021/03/10 08:44:33;;;;;;;106.35;50.88;;;;;;;;;;762175;182;646094;-63
2021/03/10 08:46:59;;;;;;;85.27;39.17;;;;;;;;;;749977;186;629946;-60
2021/03/10 08:49:26;;;;;;;115.70;52.97;;;;;;;;;;757344;186;617187;-61
2021/03/10 08:52:06;;;;;;;135.27;53.10;;;;;;;;;;755254;183;621795;-62
2021/03/10 08:54:32;;;;;;;98.20;47.07;;;;;;;;;;763606;182;918881;-61
2021/03/10 08:56:58;;;;;;;122.43;50.40;;;;;;;;;;749100;183;806769;-62
2021/03/10 08:59:30;;;;;;;106.07;51.50;;;;;;;;;;761498;183;611396;-62
2021/03/10 09:01:55;;;;;;;96.10;52.17;;;;;;;;;;758969;182;618470;-63
2021/03/10 09:04:21;;;;;;;96.75;49.67;;;;;;;;;;751658;182;1574626;-62
2021/03/10 09:06:48;;;;;;;113.22;52.05;;;;;;;;;;759289;182;938995;-60
2021/03/10 09:09:13;;;;;;;90.03;49.37;;;;;;;;;;754645;183;919289;-61
2021/03/10 09:11:39;;;;;;;102.70;50.30;;;;;;;;;;757191;182;921591;-63
2021/03/10 09:14:05;;;;;;;106.57;49.50;;;;;;;;;;758420;182;919448;-63
2021/03/10 09:16:31;;;;;;;110.75;52.55;;;;;;;;;;765954;183;913442;-61
2021/03/10 09:18:57;;;;;;;113.17;47.07;;;;;;;;;;755084;183;919185;-61
2021/03/10 09:21:23;;;;;;;95.97;49.03;;;;;;;;;;755706;183;919198;-63
2021/03/10 09:23:49;;;;;;;109.70;55.83;;;;;;;;;;761193;182;918755;-62
2021/03/10 09:26:17;;;;;;;91.93;47.20;;;;;;;;;;756909;183;928552;-62
2021/03/10 09:28:43;;;;;;;129.83;61.30;;;;;;;;;;752236;182;1021996;-62
2021/03/10 09:31:12;;;;;;;100.07;46.97;;;;;;;;;;759764;182;918638;-60
2021/03/10 09:33:38;;;;;;;99.33;45.50;;;;;;;;;;758005;183;918852;-61
2021/03/10 09:36:04;;;;;;;101.87;46.00;;;;;;;;;;761738;182;925050;-62
2021/03/10 09:38:29;;;;;;;110.20;55.13;;;;;;;;;;751618;182;920810;-61
2021/03/10 09:40:57;;;;;;;97.93;45.70;;;;;;;;;;758786;182;1779355;-61
2021/03/10 09:43:21;;;;;;;69.93;35.30;;;;;;;;;;755548;183;919623;-60
2021/03/10 09:45:48;;;;;;;74.75;34.83;;;;;;;;;;753523;182;919180;-61
2021/03/10 09:48:15;;;;;;;77.53;35.37;;;;;;;;;;751277;182;917913;-61
2021/03/10 09:50:40;;;;;;;67.17;31.70;;;;;;;;;;747390;186;918736;-61
2021/03/10 09:53:10;;;;;;;76.87;36.53;;;;;;;;;;754538;182;919131;-61
2021/03/10 09:55:36;;;;;;;59.28;32.83;;;;;;;;;;754390;182;920107;-62
2021/03/10 09:58:03;;;;;;;55.67;31.70;;;;;;;;;;755593;183;1031981;-64
2021/03/10 10:00:29;;;;;;;67.77;32.77;;;;;;;;;;743444;183;920495;-61
2021/03/10 10:02:55;;;;;;;68.00;29.67;;;;;;;;;;746723;186;958378;-62
2021/03/10 10:05:20;;;;;;;45.13;26.87;;;;;;;;;;752988;186;916429;-62
2021/03/10 10:07:46;;;;;;;58.70;27.30;;;;;;;;;;758704;183;919281;-64
2021/03/10 10:10:12;;;;;;;52.67;26.50;;;;;;;;;;743044;186;928559;-61
2021/03/10 10:12:42;;;;;;;47.10;23.27;;;;;;;;;;759787;183;919003;-62
2021/03/10 10:15:08;;;;;;;31.00;19.27;;;;;;;;;;767601;183;919376;-62
2021/03/10 10:17:34;;;;;;;41.50;21.00;;;;;;;;;;756264;183;1508284;-62
2021/03/10 10:20:00;;;;;;;49.47;24.70;;;;;;;;;;751527;183;918800;-61
2021/03/10 10:22:26;;;;;;;48.23;25.20;;;;;;;;;;767618;183;921912;-62
2021/03/10 10:24:52;;;;;;;36.53;18.47;;;;;;;;;;754728;183;1022698;-62
2021/03/10 10:27:18;;;;;;;42.97;26.23;;;;;;;;;;753946;183;919242;-62
2021/03/10 10:29:43;;;;;;;26.80;13.83;;;;;;;;;;757479;182;856918;-62
2021/03/10 10:32:09;;;;;;;39.07;20.13;;;;;;;;;;753834;182;923266;-63
2021/03/10 10:34:35;;;;;;;41.60;20.63;;;;;;;;;;750199;182;919529;-63
2021/03/10 10:37:01;;;;;;;50.40;23.80;;;;;;;;;;759545;182;919607;-62
2021/03/10 10:39:27;;;;;;;36.63;16.50;;;;;;;;;;751752;182;919438;-62
2021/03/10 10:41:53;;;;;;;29.57;19.50;;;;;;;;;;756723;182;919766;-62
2021/03/10 10:44:19;;;;;;;36.63;18.23;;;;;;;;;;755386;182;920859;-63
2021/03/10 10:46:45;;;;;;;30.53;16.27;;;;;;;;;;753050;183;919202;-63
2021/03/10 10:49:11;;;;;;;28.87;13.50;;;;;;;;;;762024;183;917956;-62
2021/03/10 10:51:37;;;;;;;28.85;15.52;;;;;;;;;;752777;182;916921;-63
2021/03/10 10:54:03;;;;;;;31.50;18.20;;;;;;;;;;763382;183;914937;-61
2021/03/10 10:56:29;;;;;;;38.83;17.40;;;;;;;;;;762069;183;905000;-63
2021/03/10 10:58:55;;;;;;;25.13;16.17;;;;;;;;;;754387;182;919108;-62
2021/03/10 11:01:21;;;;;;;30.35;17.55;;;;;;;;;;758598;182;918769;-62
2021/03/10 11:03:47;;;;;;;23.83;15.13;;;;;;;;;;763955;182;922268;-62
2021/03/10 11:06:12;;;;;;;27.15;17.12;;;;;;;;;;765401;183;918780;-62
2021/03/10 11:08:39;;;;;;;25.67;16.98;;;;;;;;;;770581;182;919142;-61
2021/03/10 11:11:05;;;;;;;26.50;17.13;;;;;;;;;;754375;183;918980;-62
2021/03/10 11:13:31;;;;;;;33.87;16.20;;;;;;;;;;761242;183;919316;-62
2021/03/10 11:15:57;;;;;;;26.83;15.30;;;;;;;;;;752279;182;1021087;-63
2021/03/10 11:18:22;;;;;;;26.87;16.30;;;;;;;;;;762467;182;918895;-61
2021/03/10 11:20:48;;;;;;;28.07;15.40;;;;;;;;;;754234;182;919186;-63
2021/03/10 11:23:14;;;;;;;26.63;16.90;;;;;;;;;;753361;183;919230;-62
2021/03/10 11:25:40;;;;;;;33.80;16.07;;;;;;;;;;756524;183;919112;-62
2021/03/10 11:28:06;;;;;;;36.90;16.97;;;;;;;;;;755106;183;918410;-63
2021/03/10 11:30:32;;;;;;;32.17;16.80;;;;;;;;;;754087;183;919523;-62
2021/03/10 11:32:58;;;;;;;24.57;12.80;;;;;;;;;;758585;183;919226;-62
2021/03/10 11:35:23;;;;;;;33.17;17.23;;;;;;;;;;756584;182;923810;-63
2021/03/10 11:37:49;;;;;;;26.50;17.33;;;;;;;;;;754945;182;920117;-62
2021/03/10 11:40:16;;;;;;;31.35;17.05;;;;;;;;;;757305;182;919818;-61
2021/03/10 11:42:42;;;;;;;38.13;18.30;;;;;;;;;;756398;182;903890;-62
2021/03/10 11:45:08;;;;;;;27.20;14.97;;;;;;;;;;765369;182;919656;-62
2021/03/10 11:47:34;;;;;;;22.40;13.67;;;;;;;;;;756369;182;920753;-63
2021/03/10 11:50:00;;;;;;;31.17;17.27;;;;;;;;;;756331;182;922038;-62
2021/03/10 11:52:26;;;;;;;32.17;15.60;;;;;;;;;;746396;186;919379;-63
2021/03/10 11:54:51;;;;;;;40.80;19.47;;;;;;;;;;751357;182;919410;-62
2021/03/10 11:57:17;;;;;;;23.80;14.50;;;;;;;;;;757599;182;919363;-64
2021/03/10 11:59:43;;;;;;;29.40;16.97;;;;;;;;;;756943;182;921184;-62
2021/03/10 12:02:09;;;;;;;47.57;17.30;;;;;;;;;;755494;182;915606;-63
2021/03/10 12:04:35;;;;;;;29.33;18.00;;;;;;;;;;760296;182;911566;-62
2021/03/10 12:07:01;;;;;;;26.60;14.27;;;;;;;;;;759261;182;914134;-62
2021/03/10 12:09:27;;;;;;;25.77;16.67;;;;;;;;;;749206;182;913407;-62
2021/03/10 12:11:52;;;;;;;28.70;15.85;;;;;;;;;;761809;183;1010489;-62
2021/03/10 12:14:18;;;;;;;26.47;15.70;;;;;;;;;;765692;182;909063;-63
2021/03/10 12:16:44;;;;;;;32.85;13.38;;;;;;;;;;764209;182;908037;-64
2021/03/10 12:19:10;;;;;;;28.63;14.27;;;;;;;;;;746529;183;914794;-63
2021/03/10 12:21:36;;;;;;;27.43;16.20;;;;;;;;;;761594;182;919237;-64
2021/03/10 12:24:02;;;;;;;27.00;14.80;;;;;;;;;;754454;183;943226;-63
2021/03/10 12:26:27;;;;;;;27.27;14.90;;;;;;;;;;752836;182;937521;-63
2021/03/10 12:28:53;;;;;;;25.17;15.33;;;;;;;;;;754425;183;912153;-63
2021/03/10 12:31:19;;;;;;;36.33;16.40;;;;;;;;;;760576;183;918745;-63
2021/03/10 12:33:45;;;;;;;19.97;14.17;;;;;;;;;;743241;182;3465972;-62
2021/03/10 12:36:11;;;;;;;24.65;13.57;;;;;;;;;;762339;183;1016664;-63
2021/03/10 12:38:37;;;;;;;25.70;15.43;;;;;;;;;;753781;183;919992;-64
2021/03/10 12:41:02;;;;;;;28.67;13.95;;;;;;;;;;753518;183;919748;-64
2021/03/10 12:43:28;;;;;;;25.73;15.40;;;;;;;;;;760644;183;918527;-64
2021/03/10 12:45:54;;;;;;;32.37;16.90;;;;;;;;;;755709;183;936742;-63
2021/03/10 12:48:20;;;;;;;18.80;10.97;;;;;;;;;;760337;183;919543;-65
2021/03/10 12:50:46;;;;;;;31.05;15.35;;;;;;;;;;753367;182;919241;-63
2021/03/10 12:53:12;;;;;;;28.87;16.37;;;;;;;;;;755797;182;918908;-63
2021/03/10 12:55:38;;;;;;;18.80;9.57;;;;;;;;;;753320;185;914731;-64
2021/03/10 12:58:03;;;;;;;30.70;15.57;;;;;;;;;;765531;182;914917;-63
2021/03/10 13:00:29;;;;;;;29.83;16.10;;;;;;;;;;756878;182;895393;-63
2021/03/10 13:02:57;;;;;;;24.60;13.13;;;;;;;;;;760339;182;923498;-64
2021/03/10 13:05:22;;;;;;;40.30;19.20;;;;;;;;;;751781;182;915737;-64
2021/03/10 13:07:49;;;;;;;36.67;16.65;;;;;;;;;;755832;182;923535;-63
2021/03/10 13:10:15;;;;;;;22.17;12.33;;;;;;;;;;745910;186;916486;-64
2021/03/10 13:12:41;;;;;;;26.62;14.75;;;;;;;;;;759903;183;916237;-64
2021/03/10 13:15:10;;;;;;;42.53;18.87;;;;;;;;;;761344;182;916397;-63
2021/03/10 13:17:36;;;;;;;32.83;18.90;;;;;;;;;;766951;182;918970;-63
2021/03/10 13:20:02;;;;;;;26.45;14.85;;;;;;;;;;754613;182;920184;-64
2021/03/10 13:22:28;;;;;;;39.00;18.93;;;;;;;;;;747515;182;998038;-65
2021/03/10 13:24:54;;;;;;;23.80;11.60;;;;;;;;;;763788;183;916651;-63
2021/03/10 13:27:19;;;;;;;34.85;16.58;;;;;;;;;;757339;182;915758;-63
2021/03/10 13:29:45;;;;;;;28.13;16.07;;;;;;;;;;754684;183;916179;-64
2021/03/10 13:32:11;;;;;;;24.60;14.95;;;;;;;;;;753299;182;915792;-63
2021/03/10 13:34:38;;;;;;;35.40;19.47;;;;;;;;;;752715;183;915126;-63
2021/03/10 13:37:03;;;;;;;39.10;20.55;;;;;;;;;;754645;183;1227066;-65
2021/03/10 13:39:29;;;;;;;22.43;11.83;;;;;;;;;;754695;183;915643;-63
2021/03/10 13:41:55;;;;;;;27.83;15.93;;;;;;;;;;751631;183;915228;-64
2021/03/10 13:44:21;;;;;;;33.57;20.23;;;;;;;;;;754811;182;915513;-63
2021/03/10 13:46:46;;;;;;;28.23;17.17;;;;;;;;;;750556;182;1119488;-64
2021/03/10 13:49:12;;;;;;;41.53;19.17;;;;;;;;;;754958;182;914514;-63
2021/03/10 13:51:39;;;;;;;30.33;18.40;;;;;;;;;;752575;183;918653;-65
2021/03/10 13:54:05;;;;;;;31.97;14.77;;;;;;;;;;753389;183;919305;-65
2021/03/10 13:56:31;;;;;;;12.83;8.60;;;;;;;;;;759633;182;920184;-63